createdAt,value
2023-01-25T00:02:03.620Z,102034.78
2023-01-25T00:04:32.722Z,102034.81
2023-01-25T00:07:01.914Z,102034.88
2023-01-25T00:09:30.454Z,102031.44
2023-01-25T00:12:00.443Z,102037.50
2023-01-25T00:14:28.975Z,102038.31
2023-01-25T00:16:58.120Z,102025.31
2023-01-25T00:19:26.843Z,102015.88
2023-01-25T00:21:55.478Z,102019.28
2023-01-25T00:24:26.005Z,102021.78
2023-01-25T00:26:54.617Z,102020.88
2023-01-25T00:29:24.564Z,102008.81
2023-01-25T00:32:03.609Z,102017.47
2023-01-25T00:34:46.922Z,102022.63
2023-01-25T00:37:21.890Z,102021.72
2023-01-25T00:39:50.590Z,102027.84
2023-01-25T00:42:20.712Z,102020.91
2023-01-25T00:44:51.066Z,102012.25
2023-01-25T00:47:21.669Z,102013.06
2023-01-25T00:49:50.414Z,102008.75
2023-01-25T00:52:18.847Z,102012.19
2023-01-25T00:54:47.446Z,102009.56
2023-01-25T00:57:16.069Z,102007.81
2023-01-25T00:59:46.146Z,101995.72
2023-01-25T01:02:17.955Z,102008.72
2023-01-25T01:04:46.621Z,102006.06
2023-01-25T01:07:16.484Z,101996.53
2023-01-25T01:09:45.425Z,101997.38
2023-01-25T01:12:13.992Z,101993.09
2023-01-25T01:14:43.910Z,101987.97
2023-01-25T01:17:12.449Z,101994.84
2023-01-25T01:19:43.307Z,101988.78
2023-01-25T01:22:11.842Z,101985.38
2023-01-25T01:24:40.495Z,101981.03
2023-01-25T01:27:10.530Z,101985.38
2023-01-25T01:29:39.153Z,101980.19
2023-01-25T01:32:07.841Z,101978.47
2023-01-25T01:34:36.775Z,101977.63
2023-01-25T01:37:06.767Z,101979.31
2023-01-25T01:39:36.220Z,101977.56
2023-01-25T01:42:05.216Z,101973.28
2023-01-25T01:44:48.946Z,101968.88
2023-01-25T01:47:23.107Z,101956.78
2023-01-25T01:50:00.909Z,101967.09
2023-01-25T01:52:36.772Z,101953.31
2023-01-25T01:55:10.500Z,101966.25
2023-01-25T01:57:44.922Z,101961.94
2023-01-25T02:00:17.437Z,101958.47
2023-01-25T02:02:50.473Z,101961.91
2023-01-25T02:05:26.739Z,101963.63
2023-01-25T02:07:57.611Z,101963.59
2023-01-25T02:10:28.410Z,101957.53
2023-01-25T02:12:59.807Z,101960.94
2023-01-25T02:15:33.851Z,101968.75
2023-01-25T02:18:04.667Z,101965.22
2023-01-25T02:20:38.629Z,101963.53
2023-01-25T02:23:17.557Z,101961.78
2023-01-25T02:25:47.970Z,101959.22
2023-01-25T02:28:22.540Z,101956.59
2023-01-25T02:30:51.451Z,101948.78
2023-01-25T02:33:20.543Z,101941.88
2023-01-25T02:35:53.963Z,101936.69
2023-01-25T02:38:23.281Z,101940.13
2023-01-25T02:41:00.538Z,101934.09
2023-01-25T02:43:33.779Z,101934.06
2023-01-25T02:46:13.216Z,101929.72
2023-01-25T02:48:46.452Z,101931.50
2023-01-25T02:51:15.350Z,101928.91
2023-01-25T02:53:44.084Z,101929.78
2023-01-25T02:56:13.939Z,101923.75
2023-01-25T02:58:42.704Z,101923.72
2023-01-25T03:01:12.375Z,101929.75
2023-01-25T03:03:43.097Z,101922.78
2023-01-25T03:06:12.085Z,101923.56
2023-01-25T03:08:41.751Z,101923.53
2023-01-25T03:11:10.561Z,101924.47
2023-01-25T03:13:40.870Z,101920.13
2023-01-25T03:16:12.202Z,101925.34
2023-01-25T03:18:43.403Z,101915.00
2023-01-25T03:21:15.375Z,101917.50
2023-01-25T03:23:45.449Z,101916.63
2023-01-25T03:26:18.623Z,101913.19
2023-01-25T03:29:06.520Z,101923.47
2023-01-25T03:31:38.772Z,101920.00
2023-01-25T03:34:07.583Z,101910.50
2023-01-25T03:36:40.715Z,101905.34
2023-01-25T03:39:09.258Z,101904.47
2023-01-25T03:41:42.316Z,101897.53
2023-01-25T03:44:15.200Z,101891.47
2023-01-25T03:46:46.094Z,101897.50
2023-01-25T03:49:14.850Z,101885.41
2023-01-25T03:51:43.827Z,101887.13
2023-01-25T03:54:12.454Z,101892.25
2023-01-25T03:56:42.142Z,101884.44
2023-01-25T03:59:21.148Z,101886.97
2023-01-25T04:01:50.341Z,101885.22
2023-01-25T04:04:19.300Z,101882.56
2023-01-25T04:06:49.833Z,101880.84
2023-01-25T04:09:18.590Z,101882.53
2023-01-25T04:11:52.141Z,101873.00
2023-01-25T04:14:31.979Z,101871.28
2023-01-25T04:17:11.020Z,101860.00
2023-01-25T04:19:59.728Z,101860.81
2023-01-25T04:22:35.424Z,101863.41
2023-01-25T04:25:06.749Z,101855.59
2023-01-25T04:27:35.838Z,101869.41
2023-01-25T04:30:16.522Z,101866.78
2023-01-25T04:32:46.947Z,101865.94
2023-01-25T04:35:33.729Z,101858.16
2023-01-25T04:38:04.392Z,101852.94
2023-01-25T04:40:40.187Z,101852.94
2023-01-25T04:47:35.539Z,101839.03
2023-01-25T04:50:07.324Z,101836.38
2023-01-25T04:52:36.391Z,101842.38
2023-01-25T04:55:05.134Z,101844.97
2023-01-25T04:57:41.235Z,101845.81
2023-01-25T05:00:12.083Z,101844.09
2023-01-25T05:02:42.156Z,101842.38
2023-01-25T05:05:11.857Z,101835.41
2023-01-25T05:07:41.085Z,101847.50
2023-01-25T05:10:12.044Z,101847.47
2023-01-25T05:12:47.795Z,101853.47
2023-01-25T05:15:16.490Z,101857.84
2023-01-25T05:17:46.550Z,101852.72
2023-01-25T05:20:15.349Z,101857.03
2023-01-25T05:22:44.059Z,101856.13
2023-01-25T05:25:26.482Z,101853.53
2023-01-25T05:27:55.265Z,101862.16
2023-01-25T05:30:51.516Z,101855.16
2023-01-25T05:33:27.954Z,101851.72
2023-01-25T05:35:56.500Z,101845.59
2023-01-25T05:38:26.169Z,101842.97
2023-01-25T05:40:58.889Z,101838.63
2023-01-25T05:43:27.513Z,101833.41
2023-01-25T05:45:56.364Z,101833.44
2023-01-25T05:48:25.558Z,101839.47
2023-01-25T05:50:58.926Z,101825.66
2023-01-25T05:53:27.742Z,101830.91
2023-01-25T05:55:56.568Z,101828.31
2023-01-25T05:58:25.405Z,101842.97
2023-01-25T06:00:55.094Z,101833.44
2023-01-25T06:03:35.564Z,101846.38
2023-01-25T06:06:06.669Z,101851.59
2023-01-25T06:08:36.975Z,101842.13
2023-01-25T06:11:08.817Z,101826.53
2023-01-25T06:13:39.635Z,101828.31
2023-01-25T06:16:08.910Z,101823.97
2023-01-25T06:18:44.917Z,101825.66
2023-01-25T06:21:37.205Z,101829.91
2023-01-25T06:24:06.625Z,101829.91
2023-01-25T06:26:35.794Z,101829.94
2023-01-25T06:29:06.708Z,101821.38
2023-01-25T06:31:35.475Z,101823.91
2023-01-25T06:34:06.485Z,101836.00
2023-01-25T06:36:37.461Z,101835.06
2023-01-25T06:39:06.877Z,101831.69
2023-01-25T06:41:35.782Z,101833.34
2023-01-25T06:44:05.251Z,101828.22
2023-01-25T06:46:34.196Z,101837.78
2023-01-25T06:49:03.170Z,101817.94
2023-01-25T06:51:31.692Z,101821.38
2023-01-25T06:54:04.925Z,101817.88
2023-01-25T06:56:34.016Z,101823.88
2023-01-25T06:59:02.600Z,101826.44
2023-01-25T07:01:31.400Z,101812.66
2023-01-25T07:04:00.972Z,101810.06
2023-01-25T07:06:35.244Z,101800.63
2023-01-25T07:09:06.666Z,101803.16
2023-01-25T07:11:35.681Z,101795.41
2023-01-25T07:14:06.000Z,101797.03
2023-01-25T07:16:38.760Z,101795.31
2023-01-25T07:19:08.506Z,101798.78
2023-01-25T07:21:37.075Z,101788.53
2023-01-25T07:24:07.954Z,101789.38
2023-01-25T07:26:36.505Z,101796.16
2023-01-25T07:29:05.408Z,101808.25
2023-01-25T07:31:34.363Z,101809.16
2023-01-25T07:34:03.127Z,101803.94
2023-01-25T07:36:31.679Z,101808.25
2023-01-25T07:39:00.158Z,101807.41
2023-01-25T07:41:30.176Z,101806.53
2023-01-25T07:43:58.500Z,101806.53
2023-01-25T07:46:50.407Z,101799.63
2023-01-25T07:49:18.979Z,101791.88
2023-01-25T07:51:47.476Z,101783.25
2023-01-25T07:54:16.448Z,101791.09
2023-01-25T07:56:46.437Z,101792.81
2023-01-25T07:59:15.672Z,101782.41
2023-01-25T08:01:44.357Z,101777.25
2023-01-25T08:04:13.254Z,101778.09
2023-01-25T08:06:41.794Z,101774.66
2023-01-25T08:09:13.528Z,101775.63
2023-01-25T08:11:43.018Z,101753.25
2023-01-25T08:14:13.194Z,101756.78
2023-01-25T08:16:41.989Z,101753.41
2023-01-25T08:19:11.769Z,101750.03
2023-01-25T08:21:40.753Z,101747.50
2023-01-25T08:24:10.515Z,101745.72
2023-01-25T08:26:39.719Z,101755.28
2023-01-25T08:29:08.956Z,101756.22
2023-01-25T08:31:41.864Z,101750.22
2023-01-25T08:34:11.643Z,101748.50
2023-01-25T08:36:40.947Z,101743.28
2023-01-25T08:39:12.086Z,101748.47
2023-01-25T08:41:42.790Z,101745.81
2023-01-25T08:44:11.778Z,101751.84
2023-01-25T08:46:42.092Z,101756.13
2023-01-25T08:49:11.419Z,101742.34
2023-01-25T08:51:39.956Z,101750.13
2023-01-25T08:54:14.550Z,101745.72
2023-01-25T08:56:43.929Z,101756.06
2023-01-25T08:59:13.818Z,101753.41
2023-01-25T09:01:43.762Z,101752.56
2023-01-25T09:04:12.378Z,101749.94
2023-01-25T09:06:40.875Z,101744.81
2023-01-25T09:09:09.823Z,101743.06
2023-01-25T09:11:40.506Z,101738.75
2023-01-25T09:14:09.170Z,101743.06
2023-01-25T09:16:37.790Z,101729.28
2023-01-25T09:19:08.095Z,101718.94
2023-01-25T09:21:37.369Z,101718.13
2023-01-25T09:24:07.715Z,101717.22
2023-01-25T09:26:40.646Z,101725.00
2023-01-25T09:29:11.635Z,101722.44
2023-01-25T09:31:43.977Z,101721.50
2023-01-25T09:34:34.920Z,101720.66
2023-01-25T09:37:04.159Z,101720.59
2023-01-25T09:39:33.343Z,101711.13
2023-01-25T09:42:37.922Z,101708.53
2023-01-25T09:45:22.746Z,101702.53
2023-01-25T09:47:59.405Z,101716.38
2023-01-25T09:50:39.094Z,101717.28
2023-01-25T09:53:33.304Z,101710.34
2023-01-25T09:56:11.004Z,101705.16
2023-01-25T09:58:44.827Z,101707.75
2023-01-25T10:01:37.675Z,101699.16
2023-01-25T10:04:15.886Z,101700.09
2023-01-25T10:06:59.761Z,101696.59
2023-01-25T10:09:41.087Z,101682.78
2023-01-25T10:12:17.423Z,101678.47
2023-01-25T10:14:46.083Z,101668.97
2023-01-25T10:17:22.029Z,101673.28
2023-01-25T10:20:04.857Z,101669.03
2023-01-25T10:22:41.033Z,101667.31
2023-01-25T10:25:28.990Z,101660.41
2023-01-25T10:28:10.294Z,101657.81
2023-01-25T10:30:46.785Z,101655.22
2023-01-25T10:33:19.767Z,101657.84
2023-01-25T10:35:50.805Z,101660.47
2023-01-25T10:38:26.720Z,101662.19
2023-01-25T10:41:00.640Z,101647.47
2023-01-25T10:43:29.870Z,101642.34
2023-01-25T10:45:58.594Z,101641.53
2023-01-25T10:48:33.246Z,101644.16
2023-01-25T10:51:02.006Z,101641.59
2023-01-25T10:53:34.505Z,101635.56
2023-01-25T10:56:12.619Z,101636.34
2023-01-25T10:58:43.699Z,101642.31
2023-01-25T11:01:15.245Z,101633.66
2023-01-25T11:03:45.748Z,101633.63
2023-01-25T11:06:14.391Z,101625.00
2023-01-25T11:08:44.583Z,101625.91
2023-01-25T11:11:28.316Z,101616.41
2023-01-25T11:13:56.863Z,101612.13
2023-01-25T11:16:34.576Z,101603.50
2023-01-25T11:19:04.524Z,101600.97
2023-01-25T11:21:35.590Z,101589.78
2023-01-25T11:24:18.814Z,101594.94
2023-01-25T11:26:47.911Z,101593.28
2023-01-25T11:29:18.632Z,101588.91
2023-01-25T11:31:49.745Z,101588.91
2023-01-25T11:34:20.902Z,101581.97
2023-01-25T11:37:01.442Z,101572.44
2023-01-25T11:39:43.664Z,101572.44
2023-01-25T11:42:28.225Z,101560.41
2023-01-25T11:45:14.380Z,101560.44
2023-01-25T11:47:58.111Z,101557.06
2023-01-25T11:50:36.112Z,101552.75
2023-01-25T11:53:27.962Z,101541.50
2023-01-25T11:56:07.837Z,101527.66
2023-01-25T11:59:01.252Z,101523.34
2023-01-25T12:01:43.864Z,101529.41
2023-01-25T12:04:40.452Z,101519.06
2023-01-25T12:07:16.233Z,101506.97
2023-01-25T12:10:01.228Z,101508.66
2023-01-25T12:12:44.735Z,101501.78
2023-01-25T12:15:29.552Z,101499.19
2023-01-25T12:18:20.421Z,101495.75
2023-01-25T12:21:07.838Z,101505.25
2023-01-25T12:23:48.790Z,101502.66
2023-01-25T12:26:29.877Z,101496.63
2023-01-25T12:29:06.877Z,101494.94
2023-01-25T12:31:44.815Z,101490.59
2023-01-25T12:34:20.935Z,101492.31
2023-01-25T12:36:51.661Z,101494.88
2023-01-25T12:39:24.807Z,101481.03
2023-01-25T12:41:57.541Z,101497.44
2023-01-25T12:44:32.322Z,101483.59
2023-01-25T12:47:08.042Z,101485.31
2023-01-25T12:49:46.578Z,101491.34
2023-01-25T12:52:23.559Z,101483.56
2023-01-25T12:54:56.914Z,101480.97
2023-01-25T12:57:31.111Z,101474.94
2023-01-25T13:00:09.875Z,101470.63
2023-01-25T13:02:56.540Z,101472.38
2023-01-25T13:05:37.646Z,101461.16
2023-01-25T13:08:30.874Z,101469.78
2023-01-25T13:11:11.899Z,101468.91
2023-01-25T13:13:40.490Z,101463.72
2023-01-25T13:16:37.909Z,101463.69
2023-01-25T13:19:20.776Z,101462.88
2023-01-25T13:21:52.609Z,101463.72
2023-01-25T13:24:24.368Z,101455.13
2023-01-25T13:27:01.925Z,101459.47
2023-01-25T13:29:59.167Z,101461.16
2023-01-25T13:33:03.708Z,101464.63
2023-01-25T13:35:36.796Z,101460.28
2023-01-25T13:38:26.563Z,101458.56
2023-01-25T13:41:14.569Z,101455.94
2023-01-25T13:43:45.597Z,101458.53
2023-01-25T13:46:19.110Z,101450.78
2023-01-25T13:49:02.962Z,101442.13
2023-01-25T13:51:37.880Z,101443.84
2023-01-25T13:54:06.987Z,101440.44
2023-01-25T13:56:37.548Z,101439.56
2023-01-25T13:59:05.977Z,101429.19
2023-01-25T14:01:37.444Z,101430.06
2023-01-25T14:04:06.795Z,101426.59
2023-01-25T14:06:40.577Z,101425.78
2023-01-25T14:09:16.777Z,101411.03
2023-01-25T14:11:50.921Z,101418.81
2023-01-25T14:14:22.213Z,101418.81
2023-01-25T14:17:03.125Z,101417.97
2023-01-25T14:19:33.633Z,101411.91
2023-01-25T14:22:14.900Z,101408.47
2023-01-25T14:24:43.523Z,101393.81
2023-01-25T14:27:15.495Z,101394.59
2023-01-25T14:29:49.869Z,101398.03
2023-01-25T14:32:21.827Z,101379.03
2023-01-25T14:34:49.978Z,101380.75
2023-01-25T14:37:22.338Z,101385.09
2023-01-25T14:39:53.178Z,101385.09
2023-01-25T14:42:21.762Z,101369.56
2023-01-25T14:44:50.366Z,101379.03
2023-01-25T14:47:23.906Z,101366.09
2023-01-25T14:49:52.281Z,101373.00
2023-01-25T14:52:26.038Z,101363.56
2023-01-25T14:54:57.593Z,101353.22
2023-01-25T14:57:35.864Z,101350.66
2023-01-25T15:00:06.674Z,101349.75
2023-01-25T15:02:40.450Z,101345.44
2023-01-25T15:05:19.659Z,101348.88
2023-01-25T15:07:51.256Z,101341.13
2023-01-25T15:10:23.295Z,101334.22
2023-01-25T15:13:13.570Z,101346.28
2023-01-25T15:15:55.002Z,101335.94
2023-01-25T15:18:43.637Z,101333.34
2023-01-25T15:21:14.113Z,101323.88
2023-01-25T15:23:45.675Z,101323.00
2023-01-25T15:26:21.016Z,101324.69
2023-01-25T15:28:50.052Z,101323.06
2023-01-25T15:31:20.273Z,101330.81
2023-01-25T15:33:49.389Z,101318.72
2023-01-25T15:36:18.735Z,101326.47
2023-01-25T15:38:48.689Z,101327.34
2023-01-25T15:41:21.557Z,101316.13
2023-01-25T15:43:51.122Z,101318.72
2023-01-25T15:46:21.205Z,101316.09
2023-01-25T15:48:51.485Z,101304.88
2023-01-25T15:51:20.263Z,101305.72
2023-01-25T15:53:50.355Z,101303.13
2023-01-25T15:56:21.009Z,101289.34
2023-01-25T15:58:52.909Z,101295.38
2023-01-25T16:01:22.357Z,101292.78
2023-01-25T16:03:51.115Z,101295.38
2023-01-25T16:06:37.991Z,101290.19
2023-01-25T16:09:15.686Z,101285.88
2023-01-25T16:11:44.638Z,101283.34
2023-01-25T16:14:13.333Z,101276.44
2023-01-25T16:16:44.273Z,101264.38
2023-01-25T16:19:14.498Z,101268.69
2023-01-25T16:21:43.686Z,101263.47
2023-01-25T16:24:13.732Z,101264.31
2023-01-25T16:26:46.853Z,101262.56
2023-01-25T16:29:15.281Z,101261.69
2023-01-25T16:31:43.779Z,101254.81
2023-01-25T16:34:13.527Z,101255.63
2023-01-25T16:36:43.882Z,101258.25
2023-01-25T16:39:20.191Z,101249.63
2023-01-25T16:41:49.583Z,101245.31
2023-01-25T16:44:18.175Z,101249.63
2023-01-25T16:46:47.553Z,101245.31
2023-01-25T16:49:18.813Z,101244.47
2023-01-25T16:51:49.147Z,101246.19
2023-01-25T16:54:20.011Z,101239.31
2023-01-25T16:56:49.138Z,101234.13
2023-01-25T16:59:18.394Z,101228.13
2023-01-25T17:01:47.699Z,101232.44
2023-01-25T17:04:16.877Z,101225.56
2023-01-25T17:06:47.309Z,101230.72
2023-01-25T17:09:24.065Z,101222.97
2023-01-25T17:11:53.588Z,101219.50
2023-01-25T17:14:22.335Z,101214.31
2023-01-25T17:16:52.165Z,101213.47
2023-01-25T17:19:21.523Z,101209.16
2023-01-25T17:21:50.094Z,101206.56
2023-01-25T17:24:22.436Z,101192.78
2023-01-25T17:26:51.647Z,101197.94
2023-01-25T17:29:20.130Z,101194.47
2023-01-25T17:31:49.494Z,101183.31
2023-01-25T17:34:19.925Z,101182.44
2023-01-25T17:36:50.857Z,101185.00
2023-01-25T17:39:22.680Z,101188.47
2023-01-25T17:41:52.101Z,101185.00
2023-01-25T17:44:21.836Z,101185.88
2023-01-25T17:46:51.546Z,101182.47
2023-01-25T17:49:22.641Z,101179.88
2023-01-25T17:51:51.895Z,101179.84
2023-01-25T17:54:22.031Z,101182.47
2023-01-25T17:56:50.339Z,101179.03
2023-01-25T17:59:18.606Z,101181.63
2023-01-25T18:01:47.163Z,101192.78
2023-01-25T18:04:17.733Z,101199.69
2023-01-25T18:06:46.451Z,101190.19
2023-01-25T18:09:14.869Z,101181.56
2023-01-25T18:11:45.116Z,101178.09
2023-01-25T18:14:16.925Z,101177.19
2023-01-25T18:16:45.701Z,101193.63
2023-01-25T18:19:14.234Z,101189.28
2023-01-25T18:21:43.488Z,101183.22
2023-01-25T18:24:26.118Z,101177.19
2023-01-25T18:27:02.237Z,101170.28
2023-01-25T18:29:48.731Z,101164.25
2023-01-25T18:32:17.377Z,101159.97
2023-01-25T18:34:48.228Z,101164.25
2023-01-25T18:37:21.171Z,101156.50
2023-01-25T18:39:54.258Z,101148.72
2023-01-25T18:42:26.033Z,101155.63
2023-01-25T18:44:54.237Z,101159.09
2023-01-25T18:47:24.366Z,101159.13
2023-01-25T18:49:54.235Z,101151.41
2023-01-25T18:52:24.174Z,101147.94
2023-01-25T18:54:52.822Z,101152.22
2023-01-25T18:57:23.375Z,101145.31
2023-01-25T18:59:52.180Z,101144.50
2023-01-25T19:02:23.115Z,101146.19
2023-01-25T19:04:51.532Z,101150.53
2023-01-25T19:07:19.892Z,101142.78
2023-01-25T19:09:48.593Z,101141.94
2023-01-25T19:12:17.512Z,101141.94
2023-01-25T19:14:47.798Z,101141.91
2023-01-25T19:17:16.274Z,101136.69
2023-01-25T19:19:44.714Z,101145.31
2023-01-25T19:22:13.055Z,101135.84
2023-01-25T19:24:41.327Z,101133.28
2023-01-25T19:27:09.859Z,101126.38
2023-01-25T19:29:38.335Z,101127.28
2023-01-25T19:32:10.852Z,101121.25
2023-01-25T19:34:39.784Z,101116.91
2023-01-25T19:37:08.276Z,101127.22
2023-01-25T19:39:37.263Z,101114.31
2023-01-25T19:42:06.941Z,101111.72
2023-01-25T19:44:35.345Z,101111.69
2023-01-25T19:47:03.952Z,101104.81
2023-01-25T19:49:33.885Z,101109.13
2023-01-25T19:52:03.558Z,101101.34
2023-01-25T19:54:32.114Z,101098.78
2023-01-25T19:57:01.231Z,101094.47
2023-01-25T19:59:29.835Z,101090.19
2023-01-25T20:01:59.086Z,101093.69
2023-01-25T20:04:27.521Z,101096.25
2023-01-25T20:06:57.371Z,101089.34
2023-01-25T20:09:28.309Z,101085.00
2023-01-25T20:11:57.893Z,101082.44
2023-01-25T20:14:27.953Z,101076.41
2023-01-25T20:16:56.254Z,101078.97
2023-01-25T20:19:24.570Z,101079.00
2023-01-25T20:21:53.060Z,101063.50
2023-01-25T20:24:25.153Z,101063.50
2023-01-25T20:26:54.838Z,101066.94
2023-01-25T20:29:24.203Z,101066.09
2023-01-25T20:31:53.195Z,101068.69
2023-01-25T20:34:23.284Z,101072.97
2023-01-25T20:36:52.557Z,101066.94
2023-01-25T20:39:22.721Z,101063.47
2023-01-25T20:41:53.777Z,101061.75
2023-01-25T20:44:22.602Z,101058.28
2023-01-25T20:46:52.798Z,101061.69
2023-01-25T20:49:21.281Z,101050.47
2023-01-25T20:51:49.716Z,101057.41
2023-01-25T20:54:20.776Z,101050.53
2023-01-25T20:56:50.505Z,101044.47
2023-01-25T20:59:20.878Z,101039.31
2023-01-25T21:01:50.472Z,101044.47
2023-01-25T21:04:19.124Z,101041.91
2023-01-25T21:06:47.580Z,101030.69
2023-01-25T21:09:16.298Z,101023.81
2023-01-25T21:11:44.958Z,101029.84
2023-01-25T21:14:13.380Z,101019.53
2023-01-25T21:16:43.236Z,101018.69
2023-01-25T21:19:11.946Z,101014.38
2023-01-25T21:21:40.506Z,101013.50
2023-01-25T21:24:10.361Z,101020.38
2023-01-25T21:26:39.495Z,101016.09
2023-01-25T21:29:08.866Z,101014.38
2023-01-25T21:31:42.549Z,101013.53
2023-01-25T21:34:12.557Z,101011.81
2023-01-25T21:36:40.924Z,101019.53
2023-01-25T21:39:09.597Z,101012.63
2023-01-25T21:41:37.977Z,101014.34
2023-01-25T21:44:23.721Z,101010.88
2023-01-25T21:47:27.421Z,101016.91
2023-01-25T21:50:12.864Z,101004.88
2023-01-25T21:52:41.352Z,100997.94
2023-01-25T21:55:10.955Z,100991.06
2023-01-25T21:57:45.741Z,100996.22
2023-01-25T22:00:17.171Z,100990.19
2023-01-25T22:02:45.926Z,100985.88
2023-01-25T22:05:15.756Z,100985.88
2023-01-25T22:07:44.287Z,100989.34
2023-01-25T22:10:13.495Z,100989.34
2023-01-25T22:12:41.842Z,100987.59
2023-01-25T22:15:10.565Z,100985.91
2023-01-25T22:17:38.937Z,100983.34
2023-01-25T22:20:08.760Z,100981.59
2023-01-25T22:22:38.778Z,100979.91
2023-01-25T22:25:07.913Z,100987.66
2023-01-25T22:27:47.410Z,100978.19
2023-01-25T22:30:15.749Z,100984.22
2023-01-25T22:32:44.056Z,100981.63
2023-01-25T22:35:12.473Z,100984.28
2023-01-25T22:37:42.043Z,100984.28
2023-01-25T22:40:11.900Z,100977.34
2023-01-25T22:42:40.469Z,100969.59
2023-01-25T22:45:09.549Z,100973.94
2023-01-25T22:47:37.897Z,100975.66
2023-01-25T22:50:07.091Z,100967.03
2023-01-25T22:52:35.514Z,100965.31
2023-01-25T22:55:06.070Z,100953.25
2023-01-25T22:57:34.545Z,100953.25
2023-01-25T23:00:03.073Z,100946.41
2023-01-25T23:02:32.247Z,100945.53
2023-01-25T23:05:00.619Z,100932.59
2023-01-25T23:07:29.340Z,100935.16
2023-01-25T23:09:57.826Z,100933.44
2023-01-25T23:12:27.734Z,100925.69
2023-01-25T23:14:59.231Z,100916.22
2023-01-25T23:17:45.319Z,100922.25
2023-01-25T23:20:14.522Z,100915.38
2023-01-25T23:22:43.017Z,100909.31
2023-01-25T23:25:13.145Z,100909.31
2023-01-25T23:27:42.855Z,100913.69
2023-01-25T23:30:12.578Z,100908.53
2023-01-25T23:32:49.312Z,100905.94
2023-01-25T23:35:20.640Z,100897.31
2023-01-25T23:37:49.083Z,100896.41
2023-01-25T23:40:18.025Z,100898.16
2023-01-25T23:42:48.452Z,100897.28
2023-01-25T23:45:17.376Z,100896.44
2023-01-25T23:47:46.097Z,100895.56
2023-01-25T23:50:14.418Z,100890.38
2023-01-25T23:52:42.584Z,100886.94
2023-01-25T23:55:12.314Z,100881.75
2023-01-25T23:57:40.604Z,100880.03
